Time,TemperatureF,DewpointF,PressureIn,WindDirection,WindDirectionDegrees,WindSpeedMPH,WindSpeedGustMPH,Humidity,HourlyPrecipIn,Conditions,Clouds,dailyrainin,SoftwareType,DateUTC
2014-11-26 00:01:00,0.6,-1.9,30.18,ESE,119,0.0,0.0,89,0.00,,---,0.00,VWS V14.01,2014-11-26 06:01:00,
2014-11-26 00:06:00,0.9,-1.6,30.18,ESE,119,0.0,0.0,89,0.00,,---,0.00,VWS V14.01,2014-11-26 06:06:00,
2014-11-26 00:11:00,1.3,-1.2,30.18,ESE,119,0.0,0.0,89,0.00,,---,0.00,VWS V14.01,2014-11-26 06:11:00,
2014-11-26 00:16:00,1.3,-1.4,30.18,ESE,119,0.0,0.0,88,0.00,,---,0.00,VWS V14.01,2014-11-26 06:16:00,
2014-11-26 00:21:00,1.6,-1.1,30.18,ESE,119,0.0,0.0,88,0.00,,---,0.00,VWS V14.01,2014-11-26 06:21:00,
2014-11-26 00:26:00,2.3,-0.2,30.18,ESE,119,0.0,0.0,89,0.00,,---,0.00,VWS V14.01,2014-11-26 06:26:00,
2014-11-26 00:31:00,3.2,0.9,30.18,ESE,119,0.0,0.0,90,0.00,,---,0.00,VWS V14.01,2014-11-26 06:31:00,
2014-11-26 00:36:00,3.7,1.2,30.18,ESE,119,0.0,0.0,89,0.00,,---,0.00,VWS V14.01,2014-11-26 06:36:00,
2014-11-26 00:41:00,4.4,2.1,30.18,ESE,119,0.0,0.0,90,0.00,,---,0.00,VWS V14.01,2014-11-26 06:41:00,
2014-11-26 00:46:00,4.3,1.8,30.18,ESE,119,0.0,0.0,89,0.00,,---,0.00,VWS V14.01,2014-11-26 06:46:00,
2014-11-26 00:51:00,5.2,2.9,30.18,ESE,119,0.0,0.0,90,0.00,,---,0.00,VWS V14.01,2014-11-26 06:51:00,
2014-11-26 00:56:00,5.7,3.4,30.18,ESE,119,0.0,0.0,90,0.00,,---,0.00,VWS V14.01,2014-11-26 06:56:00,
2014-11-26 01:01:00,6.0,3.7,30.18,ESE,119,0.0,0.0,90,0.00,,---,0.00,VWS V14.01,2014-11-26 07:01:00,
2014-11-26 01:06:00,5.8,3.3,30.18,ESE,119,1.0,1.0,89,0.00,,---,0.00,VWS V14.01,2014-11-26 07:06:00,
2014-11-26 01:11:00,5.4,2.9,30.18,ESE,119,0.0,1.0,89,0.00,,---,0.00,VWS V14.01,2014-11-26 07:11:00,
2014-11-26 01:16:00,4.3,1.5,30.19,ESE,119,0.0,1.0,88,0.00,,---,0.00,VWS V14.01,2014-11-26 07:16:00,
2014-11-26 01:21:00,3.4,0.6,30.19,ESE,119,0.0,1.0,88,0.00,,---,0.00,VWS V14.01,2014-11-26 07:21:00,
2014-11-26 01:26:00,3.2,0.4,30.19,ESE,119,0.0,1.0,88,0.00,,---,0.00,VWS V14.01,2014-11-26 07:26:00,
2014-11-26 01:31:00,3.4,0.6,30.19,ESE,119,0.0,0.0,88,0.00,,---,0.00,VWS V14.01,2014-11-26 07:31:00,
2014-11-26 01:36:00,3.7,1.2,30.19,ESE,119,0.0,1.0,89,0.00,,---,0.00,VWS V14.01,2014-11-26 07:36:00,
2014-11-26 01:41:00,4.8,2.5,30.18,ESE,119,1.0,1.0,90,0.00,,---,0.00,VWS V14.01,2014-11-26 07:41:00,
2014-11-26 01:46:00,6.3,4.2,30.18,ESE,119,0.0,1.0,91,0.00,,---,0.00,VWS V14.01,2014-11-26 07:46:00,
2014-11-26 01:51:00,6.6,4.3,30.19,ESE,119,0.0,2.0,90,0.00,,---,0.00,VWS V14.01,2014-11-26 07:51:00,
2014-11-26 01:56:00,6.2,3.7,30.19,ESE,119,0.0,2.0,89,0.00,,---,0.00,VWS V14.01,2014-11-26 07:56:00,
2014-11-26 02:01:00,5.0,2.2,30.19,ESE,119,0.0,0.0,88,0.00,,---,0.00,VWS V14.01,2014-11-26 08:01:00,
2014-11-26 02:06:00,4.7,1.9,30.19,ESE,119,0.0,0.0,88,0.00,,---,0.00,VWS V14.01,2014-11-26 08:06:00,
2014-11-26 02:11:00,5.0,2.5,30.20,ESE,119,0.0,0.0,89,0.00,,---,0.00,VWS V14.01,2014-11-26 08:11:00,
2014-11-26 02:16:00,5.9,3.6,30.20,ESE,119,0.0,0.0,90,0.00,,---,0.00,VWS V14.01,2014-11-26 08:16:00,
2014-11-26 02:21:00,7.7,5.6,30.20,ESE,119,0.0,0.0,91,0.00,,---,0.00,VWS V14.01,2014-11-26 08:21:00,
2014-11-26 02:26:00,8.9,6.8,30.20,ESE,119,0.0,0.0,91,0.00,,---,0.00,VWS V14.01,2014-11-26 08:26:00,
2014-11-26 02:31:00,8.7,6.4,30.20,ESE,119,0.0,0.0,90,0.00,,---,0.00,VWS V14.01,2014-11-26 08:31:00,
2014-11-26 02:36:00,9.1,7.0,30.20,ESE,119,0.0,0.0,91,0.00,,---,0.00,VWS V14.01,2014-11-26 08:36:00,
2014-11-26 02:41:00,9.4,7.3,30.19,ESE,119,0.0,0.0,91,0.00,,---,0.00,VWS V14.01,2014-11-26 08:41:00,
2014-11-26 02:46:00,9.9,7.8,30.19,ESE,119,0.0,0.0,91,0.00,,---,0.00,VWS V14.01,2014-11-26 08:46:00,
2014-11-26 02:51:00,10.1,8.0,30.19,ESE,119,0.0,0.0,91,0.00,,---,0.00,VWS V14.01,2014-11-26 08:51:00,
2014-11-26 02:56:00,10.3,8.2,30.20,ESE,119,0.0,1.0,91,0.00,,---,0.00,VWS V14.01,2014-11-26 08:56:00,
2014-11-26 03:01:00,10.1,7.8,30.20,ESE,119,0.0,0.0,90,0.00,,---,0.00,VWS V14.01,2014-11-26 09:01:00,
2014-11-26 03:06:00,10.0,7.7,30.20,ESE,119,0.0,0.0,90,0.00,,---,0.00,VWS V14.01,2014-11-26 09:06:00,
2014-11-26 03:11:00,9.9,7.6,30.20,ESE,119,0.0,0.0,90,0.00,,---,0.00,VWS V14.01,2014-11-26 09:11:00,
2014-11-26 03:16:00,10.1,8.0,30.20,ESE,119,0.0,0.0,91,0.00,,---,0.00,VWS V14.01,2014-11-26 09:16:00,
2014-11-26 03:21:00,10.2,8.1,30.20,ESE,119,0.0,0.0,91,0.00,,---,0.00,VWS V14.01,2014-11-26 09:21:00,
2014-11-26 03:26:00,10.1,8.0,30.20,ESE,119,0.0,0.0,91,0.00,,---,0.00,VWS V14.01,2014-11-26 09:26:00,
2014-11-26 03:30:00,10.4,8.3,30.20,ESE,119,0.0,0.0,91,0.00,,---,0.00,VWS V14.01,2014-11-26 09:30:00,
2014-11-26 03:35:00,10.7,8.6,30.20,ESE,119,0.0,0.0,91,0.00,,---,0.00,VWS V14.01,2014-11-26 09:35:00,
2014-11-26 03:40:00,11.2,9.1,30.20,ESE,119,0.0,0.0,91,0.00,,---,0.00,VWS V14.01,2014-11-26 09:40:00,
2014-11-26 03:45:00,11.5,9.4,30.20,ESE,119,0.0,0.0,91,0.00,,---,0.00,VWS V14.01,2014-11-26 09:45:00,
2014-11-26 03:50:00,11.8,9.7,30.19,ESE,119,0.0,1.0,91,0.00,,---,0.00,VWS V14.01,2014-11-26 09:50:00,
2014-11-26 03:55:00,12.0,9.9,30.19,ESE,119,0.0,1.0,91,0.00,,---,0.00,VWS V14.01,2014-11-26 09:55:00,
2014-11-26 04:00:00,12.2,10.1,30.19,ESE,119,0.0,0.0,91,0.00,,---,0.00,VWS V14.01,2014-11-26 10:00:00,
2014-11-26 04:05:00,12.0,9.9,30.19,ESE,119,0.0,1.0,91,0.00,,---,0.00,VWS V14.01,2014-11-26 10:05:00,
2014-11-26 04:10:00,11.9,9.8,30.19,ESE,119,0.0,1.0,91,0.00,,---,0.00,VWS V14.01,2014-11-26 10:10:00,
2014-11-26 04:15:00,11.9,9.8,30.19,ESE,119,0.0,1.0,91,0.00,,---,0.00,VWS V14.01,2014-11-26 10:15:00,
2014-11-26 04:20:00,11.7,9.6,30.19,ESE,119,0.0,1.0,91,0.00,,---,0.00,VWS V14.01,2014-11-26 10:20:00,
2014-11-26 04:25:00,11.7,9.6,30.19,ESE,119,0.0,1.0,91,0.00,,---,0.00,VWS V14.01,2014-11-26 10:25:00,
2014-11-26 04:30:00,11.9,9.8,30.19,ESE,119,0.0,1.0,91,0.00,,---,0.00,VWS V14.01,2014-11-26 10:30:00,
2014-11-26 04:35:00,12.3,10.2,30.19,ESE,119,0.0,0.0,91,0.00,,---,0.00,VWS V14.01,2014-11-26 10:35:00,
2014-11-26 04:40:00,12.7,10.8,30.19,ESE,119,0.0,0.0,92,0.00,,---,0.00,VWS V14.01,2014-11-26 10:40:00,
2014-11-26 04:45:00,12.5,10.4,30.19,ESE,119,0.0,0.0,91,0.00,,---,0.00,VWS V14.01,2014-11-26 10:45:00,
2014-11-26 04:50:00,12.3,10.2,30.19,ESE,119,0.0,0.0,91,0.00,,---,0.00,VWS V14.01,2014-11-26 10:50:00,
2014-11-26 04:55:00,12.1,10.0,30.19,ESE,119,0.0,0.0,91,0.00,,---,0.00,VWS V14.01,2014-11-26 10:55:00,
2014-11-26 05:00:00,11.9,9.8,30.19,ESE,119,0.0,0.0,91,0.00,,---,0.00,VWS V14.01,2014-11-26 11:00:00,
2014-11-26 05:05:00,11.7,9.6,30.19,ESE,119,0.0,0.0,91,0.00,,---,0.00,VWS V14.01,2014-11-26 11:05:00,
2014-11-26 05:10:00,11.7,9.6,30.19,ESE,119,0.0,0.0,91,0.00,,---,0.00,VWS V14.01,2014-11-26 11:10:00,
2014-11-26 05:15:00,11.9,9.8,30.19,ESE,119,0.0,0.0,91,0.00,,---,0.00,VWS V14.01,2014-11-26 11:15:00,
2014-11-26 05:20:00,12.1,10.0,30.19,ESE,119,0.0,0.0,91,0.00,,---,0.00,VWS V14.01,2014-11-26 11:20:00,
2014-11-26 05:25:00,12.3,10.4,30.19,ESE,119,0.0,0.0,92,0.00,,---,0.00,VWS V14.01,2014-11-26 11:25:00,
2014-11-26 05:30:00,12.5,10.4,30.19,ESE,119,0.0,0.0,91,0.00,,---,0.00,VWS V14.01,2014-11-26 11:30:00,
2014-11-26 05:35:00,12.5,10.4,30.19,ESE,119,0.0,0.0,91,0.00,,---,0.00,VWS V14.01,2014-11-26 11:35:00,
2014-11-26 05:40:00,12.6,10.5,30.19,ESE,119,0.0,0.0,91,0.00,,---,0.00,VWS V14.01,2014-11-26 11:40:00,
2014-11-26 05:45:00,12.5,10.4,30.19,ESE,119,0.0,0.0,91,0.00,,---,0.00,VWS V14.01,2014-11-26 11:45:00,
2014-11-26 05:50:00,12.6,10.5,30.19,ESE,119,0.0,0.0,91,0.00,,---,0.00,VWS V14.01,2014-11-26 11:50:00,
2014-11-26 05:55:00,12.6,10.5,30.19,ESE,119,0.0,0.0,91,0.00,,---,0.00,VWS V14.01,2014-11-26 11:55:00,
2014-11-26 06:00:00,12.6,10.5,30.19,ESE,119,0.0,0.0,91,0.00,,---,0.00,VWS V14.01,2014-11-26 12:00:00,
2014-11-26 06:05:00,12.6,10.5,30.19,ESE,119,0.0,0.0,91,0.00,,---,0.00,VWS V14.01,2014-11-26 12:05:00,
2014-11-26 06:10:00,12.7,10.8,30.20,ESE,119,0.0,0.0,92,0.00,,---,0.00,VWS V14.01,2014-11-26 12:10:00,
2014-11-26 06:15:00,12.6,10.5,30.19,ESE,119,0.0,0.0,91,0.00,,---,0.00,VWS V14.01,2014-11-26 12:15:00,
2014-11-26 06:20:00,12.6,10.7,30.20,ESE,119,0.0,0.0,92,0.00,,---,0.00,VWS V14.01,2014-11-26 12:20:00,
2014-11-26 06:25:00,12.7,10.8,30.20,ESE,119,0.0,0.0,92,0.00,,---,0.00,VWS V14.01,2014-11-26 12:25:00,
2014-11-26 06:30:00,12.7,10.8,30.20,ESE,119,0.0,0.0,92,0.00,,---,0.00,VWS V14.01,2014-11-26 12:30:00,
2014-11-26 06:35:00,12.7,10.8,30.20,ESE,119,0.0,0.0,92,0.00,,---,0.00,VWS V14.01,2014-11-26 12:35:00,
2014-11-26 06:40:00,12.7,10.8,30.20,ESE,119,0.0,0.0,92,0.00,,---,0.00,VWS V14.01,2014-11-26 12:40:00,
2014-11-26 06:45:00,12.7,10.8,30.20,ESE,119,0.0,0.0,92,0.00,,---,0.00,VWS V14.01,2014-11-26 12:45:00,
2014-11-26 06:50:00,12.7,10.8,30.20,ESE,119,0.0,0.0,92,0.00,,---,0.00,VWS V14.01,2014-11-26 12:50:00,
2014-11-26 06:55:00,12.7,10.8,30.20,ESE,119,0.0,0.0,92,0.00,,---,0.00,VWS V14.01,2014-11-26 12:55:00,
2014-11-26 07:00:00,12.7,10.8,30.20,ESE,119,0.0,0.0,92,0.00,,---,0.00,VWS V14.01,2014-11-26 13:00:00,
2014-11-26 07:05:00,12.7,10.8,30.20,ESE,119,0.0,0.0,92,0.00,,---,0.00,VWS V14.01,2014-11-26 13:05:00,
2014-11-26 07:10:00,12.7,10.8,30.20,ESE,119,0.0,0.0,92,0.00,,---,0.00,VWS V14.01,2014-11-26 13:10:00,
2014-11-26 07:15:00,12.7,10.8,30.20,ESE,119,0.0,0.0,92,0.00,,---,0.00,VWS V14.01,2014-11-26 13:15:00,
2014-11-26 07:20:00,12.7,10.8,30.21,ESE,119,0.0,0.0,92,0.00,,---,0.00,VWS V14.01,2014-11-26 13:20:00,
2014-11-26 07:25:00,12.8,10.9,30.21,ESE,119,0.0,0.0,92,0.00,,---,0.00,VWS V14.01,2014-11-26 13:25:00,
2014-11-26 07:30:00,12.8,10.9,30.21,ESE,119,0.0,0.0,92,0.00,,---,0.00,VWS V14.01,2014-11-26 13:30:00,
2014-11-26 07:35:00,12.8,10.9,30.21,ESE,119,0.0,1.0,92,0.00,,---,0.00,VWS V14.01,2014-11-26 13:35:00,
2014-11-26 07:40:00,12.9,11.0,30.21,ESE,119,0.0,1.0,92,0.00,,---,0.00,VWS V14.01,2014-11-26 13:40:00,
2014-11-26 07:45:00,12.9,11.0,30.21,ESE,119,0.0,1.0,92,0.00,,---,0.00,VWS V14.01,2014-11-26 13:45:00,
2014-11-26 07:50:00,13.0,11.1,30.22,ESE,119,0.0,1.0,92,0.00,,---,0.00,VWS V14.01,2014-11-26 13:50:00,
2014-11-26 07:55:00,13.1,11.2,30.22,ESE,119,0.0,1.0,92,0.00,,---,0.00,VWS V14.01,2014-11-26 13:55:00,
2014-11-26 08:00:00,13.1,11.2,30.22,ESE,119,0.0,1.0,92,0.00,,---,0.00,VWS V14.01,2014-11-26 14:00:00,
2014-11-26 08:05:00,13.2,11.3,30.22,ESE,119,0.0,0.0,92,0.00,,---,0.00,VWS V14.01,2014-11-26 14:05:00,
2014-11-26 08:10:00,13.2,11.3,30.22,ESE,119,0.0,0.0,92,0.00,,---,0.00,VWS V14.01,2014-11-26 14:10:00,
2014-11-26 08:15:00,13.4,11.5,30.22,ESE,119,0.0,0.0,92,0.00,,---,0.00,VWS V14.01,2014-11-26 14:15:00,
2014-11-26 08:20:00,13.5,11.6,30.22,ESE,119,0.0,0.0,92,0.00,,---,0.00,VWS V14.01,2014-11-26 14:20:00,
2014-11-26 08:25:00,13.5,11.6,30.23,ESE,119,0.0,0.0,92,0.00,,---,0.00,VWS V14.01,2014-11-26 14:25:00,
2014-11-26 08:30:00,13.7,11.8,30.23,ESE,119,0.0,0.0,92,0.00,,---,0.00,VWS V14.01,2014-11-26 14:30:00,
2014-11-26 08:35:00,13.8,11.9,30.23,ESE,119,0.0,0.0,92,0.00,,---,0.00,VWS V14.01,2014-11-26 14:35:00,
2014-11-26 08:40:00,14.0,12.1,30.23,ESE,119,0.0,0.0,92,0.00,,---,0.00,VWS V14.01,2014-11-26 14:40:00,
2014-11-26 08:45:00,14.1,12.2,30.23,ESE,119,0.0,0.0,92,0.00,,---,0.00,VWS V14.01,2014-11-26 14:45:00,
2014-11-26 08:50:00,14.3,12.4,30.23,ESE,119,0.0,0.0,92,0.00,,---,0.00,VWS V14.01,2014-11-26 14:50:00,
2014-11-26 08:55:00,14.6,12.7,30.23,ESE,119,0.0,0.0,92,0.00,,---,0.00,VWS V14.01,2014-11-26 14:55:00,
2014-11-26 09:00:00,14.8,13.1,30.23,ESE,119,0.0,0.0,93,0.00,,---,0.00,VWS V14.01,2014-11-26 15:00:00,
2014-11-26 09:05:00,15.1,13.4,30.23,ESE,119,0.0,0.0,93,0.00,,---,0.00,VWS V14.01,2014-11-26 15:05:00,
2014-11-26 09:10:00,15.4,13.7,30.24,ESE,119,0.0,1.0,93,0.00,,---,0.00,VWS V14.01,2014-11-26 15:10:00,
2014-11-26 09:15:00,15.8,14.1,30.24,ESE,119,0.0,1.0,93,0.00,,---,0.00,VWS V14.01,2014-11-26 15:15:00,
2014-11-26 09:20:00,16.0,14.3,30.24,ESE,119,0.0,1.0,93,0.00,,---,0.00,VWS V14.01,2014-11-26 15:20:00,
2014-11-26 09:25:00,16.2,14.5,30.24,ESE,119,0.0,1.0,93,0.00,,---,0.00,VWS V14.01,2014-11-26 15:25:00,
2014-11-26 09:30:00,16.5,14.8,30.24,ESE,119,0.0,1.0,93,0.00,,---,0.00,VWS V14.01,2014-11-26 15:30:00,
2014-11-26 09:35:00,16.8,15.1,30.24,ESE,119,0.0,0.0,93,0.00,,---,0.00,VWS V14.01,2014-11-26 15:35:00,
2014-11-26 09:40:00,17.1,15.2,30.24,ESE,119,0.0,0.0,92,0.00,,---,0.00,VWS V14.01,2014-11-26 15:40:00,
2014-11-26 09:45:00,17.4,15.5,30.25,ESE,119,0.0,1.0,92,0.00,,---,0.00,VWS V14.01,2014-11-26 15:45:00,
2014-11-26 09:50:00,17.7,15.8,30.25,ESE,119,0.0,1.0,92,0.00,,---,0.00,VWS V14.01,2014-11-26 15:50:00,
2014-11-26 09:55:00,18.0,16.1,30.25,ESE,119,0.0,1.0,92,0.00,,---,0.00,VWS V14.01,2014-11-26 15:55:00,
2014-11-26 10:00:00,18.1,16.2,30.25,ESE,119,0.0,1.0,92,0.00,,---,0.00,VWS V14.01,2014-11-26 16:00:00,
2014-11-26 10:05:00,18.4,16.5,30.25,ESE,119,0.0,1.0,92,0.00,,---,0.00,VWS V14.01,2014-11-26 16:05:00,
2014-11-26 10:10:00,18.6,16.7,30.25,ESE,119,0.0,1.0,92,0.00,,---,0.00,VWS V14.01,2014-11-26 16:10:00,
2014-11-26 10:15:00,18.8,16.9,30.25,ESE,119,0.0,1.0,92,0.00,,---,0.00,VWS V14.01,2014-11-26 16:15:00,
2014-11-26 10:20:00,19.1,17.2,30.25,ESE,119,0.0,1.0,92,0.00,,---,0.00,VWS V14.01,2014-11-26 16:20:00,
2014-11-26 10:25:00,19.3,17.4,30.25,ESE,119,0.0,1.0,92,0.00,,---,0.00,VWS V14.01,2014-11-26 16:25:00,
2014-11-26 10:30:00,19.5,17.6,30.25,ESE,119,0.0,1.0,92,0.00,,---,0.00,VWS V14.01,2014-11-26 16:30:00,
2014-11-26 10:35:00,19.9,18.0,30.25,ESE,119,0.0,0.0,92,0.00,,---,0.00,VWS V14.01,2014-11-26 16:35:00,
2014-11-26 10:40:00,20.0,18.0,30.25,ESE,119,0.0,0.0,92,0.00,,---,0.00,VWS V14.01,2014-11-26 16:40:00,
2014-11-26 10:45:00,20.2,18.0,30.25,ESE,119,0.0,3.0,91,0.00,,---,0.00,VWS V14.01,2014-11-26 16:45:00,
2014-11-26 10:50:00,19.9,17.5,30.25,ESE,119,0.0,3.0,90,0.00,,---,0.00,VWS V14.01,2014-11-26 16:50:00,
2014-11-26 10:55:00,19.9,17.5,30.25,ESE,119,1.0,3.0,90,0.00,,---,0.00,VWS V14.01,2014-11-26 16:55:00,
2014-11-26 11:00:00,19.9,17.5,30.25,ESE,119,0.0,3.0,90,0.00,,---,0.00,VWS V14.01,2014-11-26 17:00:00,
2014-11-26 11:05:00,19.9,17.5,30.24,ESE,119,0.0,3.0,90,0.00,,---,0.00,VWS V14.01,2014-11-26 17:05:00,
2014-11-26 11:10:00,19.9,17.5,30.24,ESE,119,0.0,3.0,90,0.00,,---,0.00,VWS V14.01,2014-11-26 17:10:00,
2014-11-26 11:15:00,20.0,17.5,30.24,ESE,119,0.0,3.0,90,0.00,,---,0.00,VWS V14.01,2014-11-26 17:15:00,
2014-11-26 11:20:00,20.1,17.6,30.24,ESE,119,1.0,3.0,90,0.00,,---,0.00,VWS V14.01,2014-11-26 17:20:00,
2014-11-26 11:25:00,20.2,17.7,30.24,ESE,119,0.0,3.0,90,0.00,,---,0.00,VWS V14.01,2014-11-26 17:25:00,
2014-11-26 11:30:00,20.3,17.8,30.24,ESE,119,0.0,3.0,90,0.00,,---,0.00,VWS V14.01,2014-11-26 17:30:00,
2014-11-26 11:35:00,20.5,18.0,30.24,ESE,119,0.0,2.0,90,0.00,,---,0.00,VWS V14.01,2014-11-26 17:35:00,
2014-11-26 11:40:00,20.5,18.0,30.24,ESE,119,0.0,2.0,90,0.00,,---,0.00,VWS V14.01,2014-11-26 17:40:00,
2014-11-26 11:45:00,20.7,18.2,30.24,ESE,119,0.0,2.0,90,0.00,,---,0.00,VWS V14.01,2014-11-26 17:45:00,
2014-11-26 11:50:00,20.8,18.3,30.24,ESE,119,0.0,2.0,90,0.00,,---,0.00,VWS V14.01,2014-11-26 17:50:00,
2014-11-26 11:55:00,20.9,18.4,30.24,ESE,119,0.0,2.0,90,0.00,,---,0.00,VWS V14.01,2014-11-26 17:55:00,
2014-11-26 12:00:00,20.9,18.4,30.24,ESE,119,0.0,2.0,90,0.00,,---,0.00,VWS V14.01,2014-11-26 18:00:00,
2014-11-26 12:05:00,20.9,18.2,30.24,ESE,119,0.0,4.0,89,0.00,,---,0.00,VWS V14.01,2014-11-26 18:05:00,
2014-11-26 12:10:00,21.0,18.3,30.24,ESE,119,0.0,4.0,89,0.00,,---,0.00,VWS V14.01,2014-11-26 18:10:00,
2014-11-26 12:15:00,21.1,18.6,30.24,ESE,119,2.0,4.0,90,0.00,,---,0.00,VWS V14.01,2014-11-26 18:15:00,
2014-11-26 12:20:00,21.2,18.7,30.24,ESE,119,0.0,4.0,90,0.00,,---,0.00,VWS V14.01,2014-11-26 18:20:00,
2014-11-26 12:25:00,21.3,18.8,30.24,ESE,119,2.0,4.0,90,0.00,,---,0.00,VWS V14.01,2014-11-26 18:25:00,
2014-11-26 12:30:00,21.4,18.9,30.23,ESE,119,0.0,4.0,90,0.00,,---,0.00,VWS V14.01,2014-11-26 18:30:00,
2014-11-26 12:35:00,21.4,18.9,30.23,ESE,119,1.0,2.0,90,0.00,,---,0.00,VWS V14.01,2014-11-26 18:35:00,
2014-11-26 12:40:00,21.5,19.0,30.24,ESE,119,1.0,2.0,90,0.00,,---,0.00,VWS V14.01,2014-11-26 18:40:00,
2014-11-26 12:45:00,21.6,19.1,30.23,ESE,119,1.0,2.0,90,0.00,,---,0.00,VWS V14.01,2014-11-26 18:45:00,
2014-11-26 12:50:00,21.6,19.1,30.23,ESE,119,1.0,2.0,90,0.00,,---,0.00,VWS V14.01,2014-11-26 18:50:00,
2014-11-26 12:55:00,21.9,19.4,30.23,ESE,119,0.0,2.0,90,0.00,,---,0.00,VWS V14.01,2014-11-26 18:55:00,
2014-11-26 13:00:00,21.9,19.2,30.23,ESE,119,2.0,3.0,89,0.00,,---,0.00,VWS V14.01,2014-11-26 19:00:00,
2014-11-26 13:05:00,21.9,19.2,30.23,ESE,119,0.0,3.0,89,0.00,,---,0.00,VWS V14.01,2014-11-26 19:05:00,
2014-11-26 13:09:00,21.9,19.2,30.23,ESE,119,0.0,3.0,89,0.00,,---,0.00,VWS V14.01,2014-11-26 19:09:00,
2014-11-26 13:14:00,22.0,19.3,30.23,ESE,119,1.0,3.0,89,0.00,,---,0.00,VWS V14.01,2014-11-26 19:14:00,
2014-11-26 13:19:00,22.1,19.4,30.23,ESE,119,0.0,3.0,89,0.00,,---,0.00,VWS V14.01,2014-11-26 19:19:00,
2014-11-26 13:24:00,22.2,19.5,30.23,ESE,119,0.0,3.0,89,0.00,,---,0.00,VWS V14.01,2014-11-26 19:24:00,
2014-11-26 13:29:00,22.4,19.7,30.23,ESE,119,2.0,3.0,89,0.00,,---,0.00,VWS V14.01,2014-11-26 19:29:00,
2014-11-26 13:34:00,22.5,19.8,30.23,SW,232,0.0,5.0,89,0.00,,---,0.00,VWS V14.01,2014-11-26 19:34:00,
2014-11-26 13:39:00,22.6,19.9,30.23,South,181,0.0,5.0,89,0.00,,---,0.00,VWS V14.01,2014-11-26 19:39:00,
2014-11-26 13:44:00,22.7,20.2,30.24,South,181,0.0,5.0,90,0.00,,---,0.00,VWS V14.01,2014-11-26 19:44:00,
2014-11-26 13:49:00,22.8,20.3,30.24,South,181,0.0,5.0,90,0.00,,---,0.00,VWS V14.01,2014-11-26 19:49:00,
2014-11-26 13:54:00,22.9,20.4,30.24,NW,308,0.0,5.0,90,0.00,,---,0.00,VWS V14.01,2014-11-26 19:54:00,
2014-11-26 13:59:00,23.0,20.2,30.24,SSW,198,0.0,5.0,89,0.00,,---,0.00,VWS V14.01,2014-11-26 19:59:00,
2014-11-26 14:04:00,23.0,20.2,30.24,SSW,208,0.0,4.0,89,0.00,,---,0.00,VWS V14.01,2014-11-26 20:04:00,
2014-11-26 14:09:00,23.1,20.4,30.24,ESE,123,1.0,4.0,89,0.00,,---,0.00,VWS V14.01,2014-11-26 20:09:00,
2014-11-26 14:14:00,23.1,20.6,30.24,ESE,123,0.0,4.0,90,0.00,,---,0.00,VWS V14.01,2014-11-26 20:14:00,
2014-11-26 14:19:00,23.2,20.7,30.24,ESE,123,0.0,4.0,90,0.00,,---,0.00,VWS V14.01,2014-11-26 20:19:00,
2014-11-26 14:24:00,23.2,20.7,30.24,ESE,123,0.0,4.0,90,0.00,,---,0.00,VWS V14.01,2014-11-26 20:24:00,
2014-11-26 14:29:00,23.2,20.7,30.24,ESE,123,1.0,4.0,90,0.00,,---,0.00,VWS V14.01,2014-11-26 20:29:00,
2014-11-26 14:34:00,23.3,20.8,30.24,ESE,123,2.0,2.0,90,0.00,,---,0.00,VWS V14.01,2014-11-26 20:34:00,
2014-11-26 14:39:00,23.4,20.9,30.24,ESE,123,1.0,3.0,90,0.00,,---,0.00,VWS V14.01,2014-11-26 20:39:00,
2014-11-26 14:44:00,23.4,21.2,30.24,ESE,123,0.0,4.0,91,0.00,,---,0.00,VWS V14.01,2014-11-26 20:44:00,
2014-11-26 14:49:00,23.4,20.9,30.24,ESE,123,0.0,4.0,90,0.00,,---,0.00,VWS V14.01,2014-11-26 20:49:00,
2014-11-26 14:54:00,23.4,21.2,30.24,ESE,123,2.0,4.0,91,0.00,,---,0.00,VWS V14.01,2014-11-26 20:54:00,
2014-11-26 14:59:00,23.4,21.2,30.24,ESE,123,1.0,4.0,91,0.00,,---,0.00,VWS V14.01,2014-11-26 20:59:00,
2014-11-26 15:04:00,23.4,21.2,30.25,ESE,123,0.0,3.0,91,0.00,,---,0.00,VWS V14.01,2014-11-26 21:04:00,
2014-11-26 15:09:00,23.5,21.3,30.25,ESE,123,3.0,3.0,91,0.00,,---,0.00,VWS V14.01,2014-11-26 21:09:00,
2014-11-26 15:14:00,23.6,21.4,30.25,ESE,123,0.0,3.0,91,0.00,,---,0.00,VWS V14.01,2014-11-26 21:14:00,
2014-11-26 15:19:00,23.6,21.6,30.25,ESE,123,2.0,3.0,92,0.00,,---,0.00,VWS V14.01,2014-11-26 21:19:00,
2014-11-26 15:24:00,23.5,21.5,30.25,ESE,123,0.0,4.0,92,0.00,,---,0.00,VWS V14.01,2014-11-26 21:24:00,
2014-11-26 15:29:00,23.5,21.5,30.26,ESE,123,0.0,4.0,92,0.00,,---,0.00,VWS V14.01,2014-11-26 21:29:00,
2014-11-26 15:34:00,23.5,21.5,30.26,ESE,123,0.0,0.0,92,0.00,,---,0.00,VWS V14.01,2014-11-26 21:34:00,
2014-11-26 15:39:00,23.5,21.5,30.26,ESE,123,0.0,1.0,92,0.00,,---,0.00,VWS V14.01,2014-11-26 21:39:00,
2014-11-26 15:44:00,23.5,21.5,30.26,ESE,123,0.0,1.0,92,0.00,,---,0.00,VWS V14.01,2014-11-26 21:44:00,
2014-11-26 15:49:00,23.5,21.5,30.26,ESE,123,0.0,1.0,92,0.00,,---,0.00,VWS V14.01,2014-11-26 21:49:00,
2014-11-26 15:54:00,23.5,21.5,30.26,ESE,123,0.0,1.0,92,0.00,,---,0.00,VWS V14.01,2014-11-26 21:54:00,
2014-11-26 15:59:00,23.4,21.4,30.26,ESE,123,0.0,1.0,92,0.00,,---,0.00,VWS V14.01,2014-11-26 21:59:00,
2014-11-26 16:04:00,23.4,21.4,30.26,ESE,123,1.0,3.0,92,0.00,,---,0.00,VWS V14.01,2014-11-26 22:04:00,
2014-11-26 16:09:00,23.4,21.4,30.27,ESE,123,0.0,3.0,92,0.00,,---,0.00,VWS V14.01,2014-11-26 22:09:00,
2014-11-26 16:14:00,23.3,21.3,30.27,ESE,123,0.0,3.0,92,0.00,,---,0.00,VWS V14.01,2014-11-26 22:14:00,
2014-11-26 16:19:00,23.3,21.3,30.27,ESE,123,0.0,3.0,92,0.00,,---,0.00,VWS V14.01,2014-11-26 22:19:00,
2014-11-26 16:24:00,23.3,21.3,30.27,ESE,123,0.0,3.0,92,0.00,,---,0.00,VWS V14.01,2014-11-26 22:24:00,
2014-11-26 16:29:00,23.2,21.5,30.27,ESE,123,0.0,3.0,93,0.00,,---,0.00,VWS V14.01,2014-11-26 22:29:00,
2014-11-26 16:34:00,23.1,21.4,30.27,ESE,123,0.0,0.0,93,0.00,,---,0.00,VWS V14.01,2014-11-26 22:34:00,
2014-11-26 16:39:00,23.1,21.4,30.27,ESE,123,1.0,3.0,93,0.00,,---,0.00,VWS V14.01,2014-11-26 22:39:00,
2014-11-26 16:44:00,23.0,21.3,30.27,ESE,123,0.0,3.0,93,0.00,,---,0.00,VWS V14.01,2014-11-26 22:44:00,
2014-11-26 16:49:00,22.9,21.2,30.28,ESE,123,0.0,3.0,93,0.00,,---,0.00,VWS V14.01,2014-11-26 22:49:00,
2014-11-26 16:54:00,22.8,21.1,30.28,ESE,123,0.0,4.0,93,0.00,,---,0.00,VWS V14.01,2014-11-26 22:54:00,
2014-11-26 16:59:00,22.6,20.9,30.29,ESE,123,0.0,4.0,93,0.00,,---,0.00,VWS V14.01,2014-11-26 22:59:00,
2014-11-26 17:04:00,22.5,20.5,30.29,ESE,123,1.0,1.0,92,0.00,,---,0.00,VWS V14.01,2014-11-26 23:04:00,
2014-11-26 17:09:00,22.4,20.4,30.29,ESE,123,1.0,2.0,92,0.00,,---,0.00,VWS V14.01,2014-11-26 23:09:00,
2014-11-26 17:14:00,22.2,20.2,30.29,ESE,123,0.0,4.0,92,0.00,,---,0.00,VWS V14.01,2014-11-26 23:14:00,
2014-11-26 17:19:00,22.1,20.1,30.29,ESE,123,0.0,4.0,92,0.00,,---,0.00,VWS V14.01,2014-11-26 23:19:00,
2014-11-26 17:24:00,22.1,20.1,30.29,ESE,123,0.0,4.0,92,0.00,,---,0.00,VWS V14.01,2014-11-26 23:24:00,
2014-11-26 17:29:00,21.9,19.9,30.29,ESE,123,0.0,4.0,92,0.00,,---,0.00,VWS V14.01,2014-11-26 23:29:00,
2014-11-26 17:34:00,21.8,19.8,30.29,ESE,123,3.0,4.0,92,0.00,,---,0.00,VWS V14.01,2014-11-26 23:34:00,
2014-11-26 17:39:00,21.7,19.7,30.29,ESE,123,0.0,4.0,92,0.00,,---,0.00,VWS V14.01,2014-11-26 23:39:00,
2014-11-26 17:44:00,21.6,19.6,30.29,ESE,123,0.0,4.0,92,0.00,,---,0.00,VWS V14.01,2014-11-26 23:44:00,
2014-11-26 17:49:00,21.6,19.6,30.29,ESE,123,0.0,4.0,92,0.00,,---,0.00,VWS V14.01,2014-11-26 23:49:00,
2014-11-26 17:54:00,21.5,19.5,30.29,ESE,123,0.0,4.0,92,0.00,,---,0.00,VWS V14.01,2014-11-26 23:54:00,
2014-11-26 17:59:00,21.5,19.5,30.29,ESE,123,0.0,4.0,92,0.00,,---,0.00,VWS V14.01,2014-11-26 23:59:00,
2014-11-26 18:04:00,21.4,19.7,30.30,ESE,123,0.0,1.0,93,0.00,,---,0.00,VWS V14.01,2014-11-27 00:04:00,
2014-11-26 18:09:00,21.4,19.7,30.30,ESE,123,0.0,1.0,93,0.00,,---,0.00,VWS V14.01,2014-11-27 00:09:00,
2014-11-26 18:14:00,21.3,19.6,30.30,ESE,123,1.0,5.0,93,0.00,,---,0.00,VWS V14.01,2014-11-27 00:14:00,
2014-11-26 18:19:00,21.2,19.5,30.30,NW,309,1.0,6.0,93,0.00,,---,0.00,VWS V14.01,2014-11-27 00:19:00,
2014-11-26 18:24:00,21.2,19.5,30.29,NE,36,2.0,6.0,93,0.00,,---,0.00,VWS V14.01,2014-11-27 00:24:00,